Latest Weather Observations for Sellicks Hill

IDS60801

Issued at 7:05 pm CST Thursday 17 April 2014 (issued every 30 minutes, with the page automatically refreshed every 10 minutes)

About weather observations | Map of weather stations | Latest weather observations for SA | Other Formats
Station Details ID: 023886 Name: MOUNT TERRIBLE RADAR Lat: -35.33 Lon: 138.50 Height: 385.7 m
Data from the previous 72 hours. | See also: Recent months for locations in South Australia
Date/Time
CST
Temp
°C
App
Temp
°C
Dew
Point
Rel
Hum
%
Delta-T
°C
Wind Press
QNH
hPa
Press
MSL
hPa
Rain
since 9 am
mm
Dir
 
Spd
km/h
Gust
km/h
Spd
kts
Gust
kts
17/07:00pm - - - - - N 6 9 3 5 - - -
17/06:30pm - - - - - N 7 11 4 6 - - -
17/06:00pm - - - - - N 6 9 3 5 - - -
17/05:30pm - - - - - NNW 7 9 4 5 - - -
17/05:00pm - - - - - NNW 7 15 4 8 - - -
17/04:30pm - - - - - NNW 11 17 6 9 - - -
17/04:00pm - - - - - NNW 9 15 5 8 - - -
17/03:30pm - - - - - NNW 9 15 5 8 - - -
17/03:00pm - - - - - NNW 9 15 5 8 - - -
17/02:30pm - - - - - NNW 9 17 5 9 - - -
17/02:00pm - - - - - NNW 9 17 5 9 - - -
17/01:30pm - - - - - NNW 7 17 4 9 - - -
17/01:00pm - - - - - NW 7 15 4 8 - - -
17/12:30pm - - - - - NW 7 15 4 8 - - -
17/12:00pm - - - - - NW 9 17 5 9 - - -
17/11:30am - - - - - NW 7 13 4 7 - - -
17/11:00am - - - - - NW 7 13 4 7 - - -
17/10:30am - - - - - NNW 9 15 5 8 - - -
17/10:00am - - - - - NNW 9 15 5 8 - - -
17/09:30am - - - - - NNW 6 7 3 4 - - -
17/09:00am - - - - - N 4 7 2 4 - - -
17/08:30am - - - - - N 4 6 2 3 - - -
17/08:00am - - - - - N 2 6 1 3 - - -
17/07:30am - - - - - N 4 6 2 3 - - -
17/07:00am - - - - - N 4 6 2 3 - - -
17/06:30am - - - - - NNW 6 9 3 5 - - -
17/06:00am - - - - - N 6 9 3 5 - - -
17/05:30am - - - - - N 6 11 3 6 - - -
17/05:00am - - - - - NNW 6 9 3 5 - - -
17/04:30am - - - - - NNW 6 7 3 4 - - -
17/04:00am - - - - - N 6 9 3 5 - - -
17/03:30am - - - - - NW 4 6 2 3 - - -
17/03:00am - - - - - WNW 4 6 2 3 - - -
17/02:30am - - - - - W 4 7 2 4 - - -
17/02:00am - - - - - WNW 4 7 2 4 - - -
17/01:30am - - - - - NW 6 9 3 5 - - -
17/01:00am - - - - - NW 6 9 3 5 - - -
17/12:30am - - - - - NW 7 11 4 6 - - -
17/12:00am - - - - - NW 6 9 3 5 - - -
 
Date/Time
CST
Temp
°C
App
Temp
°C
Dew
Point
Rel
Hum
%
Delta-T
°C
Wind Press
QNH
hPa
Press
MSL
hPa
Rain
since 9 am
mm
Dir
 
Spd
km/h
Gust
km/h
Spd
kts
Gust
kts
16/11:30pm - - - - - NW 6 9 3 5 - - -
16/11:00pm - - - - - NW 7 11 4 6 - - -
16/10:30pm - - - - - WNW 4 7 2 4 - - -
16/10:00pm - - - - - NW 4 6 2 3 - - -
16/09:30pm - - - - - NNW 4 6 2 3 - - -
16/09:00pm - - - - - NNW 4 6 2 3 - - -
16/08:30pm - - - - - WNW 4 6 2 3 - - -
16/08:00pm - - - - - WNW 2 4 1 2 - - -
16/07:30pm - - - - - W 4 6 2 3 - - -
16/07:00pm - - - - - W 4 7 2 4 - - -
16/06:30pm - - - - - W 4 6 2 3 - - -
16/06:00pm - - - - - CALM 0 0 0 0 - - -
16/05:30pm - - - - - NW 4 7 2 4 - - -
16/05:00pm - - - - - NW 4 9 2 5 - - -
16/04:30pm - - - - - WNW 6 11 3 6 - - -
16/04:00pm - - - - - W 6 11 3 6 - - -
16/03:30pm - - - - - WNW 6 9 3 5 - - -
16/03:00pm - - - - - NW 7 11 4 6 - - -
16/02:30pm - - - - - NW 9 17 5 9 - - -
16/02:00pm - - - - - NW 9 15 5 8 - - -
16/01:30pm - - - - - NW 9 20 5 11 - - -
16/01:00pm - - - - - NW 11 20 6 11 - - -
16/12:30pm - - - - - NNW 11 20 6 11 - - -
16/12:00pm - - - - - NNW 9 17 5 9 - - -
16/11:30am - - - - - NNW 13 19 7 10 - - -
16/11:00am - - - - - NNW 13 22 7 12 - - -
16/10:30am - - - - - NNW 11 19 6 10 - - -
16/10:00am - - - - - NNW 7 15 4 8 - - -
16/09:30am - - - - - NW 6 9 3 5 - - -
16/09:00am - - - - - NNW 6 9 3 5 - - -
16/08:30am - - - - - N 6 9 3 5 - - -
16/08:00am - - - - - N 2 6 1 3 - - -
16/07:30am - - - - - N 4 6 2 3 - - -
16/07:00am - - - - - CALM 0 4 0 2 - - -
16/06:30am - - - - - CALM 0 0 0 0 - - -
16/06:00am - - - - - N 2 4 1 2 - - -
16/05:30am - - - - - CALM 0 2 0 1 - - -
16/05:00am - - - - - ESE 4 6 2 3 - - -
16/04:30am - - - - - ESE 9 11 5 6 - - -
16/04:00am - - - - - E 9 13 5 7 - - -
16/03:30am - - - - - E 11 17 6 9 - - -
16/03:00am - - - - - E 17 20 9 11 - - -
16/02:30am - - - - - ESE 13 19 7 10 - - -
16/02:00am - - - - - ESE 13 19 7 10 - - -
16/01:30am - - - - - SE 17 20 9 11 - - -
16/01:00am - - - - - SE 17 19 9 10 - - -
16/12:30am - - - - - SE 17 19 9 10 - - -
16/12:00am - - - - - SE 19 22 10 12 - - -
 
Date/Time
CST
Temp
°C
App
Temp
°C
Dew
Point
Rel
Hum
%
Delta-T
°C
Wind Press
QNH
hPa
Press
MSL
hPa
Rain
since 9 am
mm
Dir
 
Spd
km/h
Gust
km/h
Spd
kts
Gust
kts
15/11:30pm - - - - - ESE 19 22 10 12 - - -
15/11:00pm - - - - - SE 19 22 10 12 - - -
15/10:30pm - - - - - SE 19 22 10 12 - - -
15/10:00pm - - - - - SE 22 24 12 13 - - -
15/09:30pm - - - - - SSE 22 24 12 13 - - -
15/09:00pm - - - - - SSE 22 24 12 13 - - -
15/08:30pm - - - - - SSE 22 26 12 14 - - -
15/08:00pm - - - - - SSE 24 28 13 15 - - -
15/07:30pm - - - - - SSE 26 30 14 16 - - -
15/07:00pm - - - - - SE 22 26 12 14 - - -
15/06:30pm - - - - - SE 20 24 11 13 - - -
15/06:00pm - - - - - SSE 22 24 12 13 - - -
15/05:30pm - - - - - SSE 20 24 11 13 - - -
15/05:00pm - - - - - SSE 24 26 13 14 - - -
15/04:30pm - - - - - S 22 28 12 15 - - -
15/04:00pm - - - - - SSE 20 26 11 14 - - -
15/03:30pm - - - - - SSE 20 28 11 15 - - -
15/03:00pm - - - - - SSE 24 32 13 17 - - -
15/02:30pm - - - - - SE 19 26 10 14 - - -
15/02:00pm - - - - - SE 17 26 9 14 - - -
15/01:30pm - - - - - SE 17 24 9 13 - - -
15/01:00pm - - - - - ESE 17 28 9 15 - - -
15/12:30pm - - - - - SE 26 33 14 18 - - -
15/12:00pm - - - - - SE 20 30 11 16 - - -
15/11:30am - - - - - SSE 22 26 12 14 - - -
15/11:00am - - - - - E 11 20 6 11 - - -
15/10:30am - - - - - ESE 13 20 7 11 - - -
15/10:00am - - - - - SE 15 22 8 12 - - -
15/09:30am - - - - - ESE 13 19 7 10 - - -
15/09:00am - - - - - SE 13 19 7 10 - - -
15/08:30am - - - - - SE 13 19 7 10 - - -
15/08:00am - - - - - SE 11 15 6 8 - - -
15/07:30am - - - - - SE 15 17 8 9 - - -
15/07:00am - - - - - SE 17 19 9 10 - - -
15/06:30am - - - - - SE 13 19 7 10 - - -
15/06:00am - - - - - SE 13 17 7 9 - - -
15/05:30am - - - - - SSE 19 22 10 12 - - -
15/05:00am - - - - - SE 19 22 10 12 - - -
15/04:30am - - - - - SSE 19 22 10 12 - - -
15/04:00am - - - - - SSE 19 22 10 12 - - -
15/03:30am - - - - - SE 20 24 11 13 - - -
15/03:00am - - - - - SE 20 26 11 14 - - -
15/02:30am - - - - - SSE 22 26 12 14 - - -
15/02:00am - - - - - SSE 22 26 12 14 - - -
15/01:30am - - - - - SSE 26 30 14 16 - - -
15/01:00am - - - - - SSE 26 35 14 19 - - -
15/12:30am - - - - - SSE 28 33 15 18 - - -
15/12:00am - - - - - SSE 30 35 16 19 - - -
 
Date/Time
CST
Temp
°C
App
Temp
°C
Dew
Point
Rel
Hum
%
Delta-T
°C
Wind Press
QNH
hPa
Press
MSL
hPa
Rain
since 9 am
mm
Dir
 
Spd
km/h
Gust
km/h
Spd
kts
Gust
kts
14/11:30pm - - - - - SSE 30 35 16 19 - - -
14/11:00pm - - - - - SSE 28 35 15 19 - - -
14/10:30pm - - - - - SSE 32 43 17 23 - - -
14/10:00pm - - - - - SSE 37 44 20 24 - - -
14/09:30pm - - - - - S 39 48 21 26 - - -
14/09:00pm - - - - - S 39 48 21 26 - - -
14/08:30pm - - - - - SSE 43 54 23 29 - - -
14/08:00pm - - - - - SSE 46 54 25 29 - - -
14/07:30pm - - - - - SSE 52 63 28 34 - - -

Other Formats:

Comma delimited format used in spreadsheet applications
http://www.bom.gov.au/fwo/IDS60801/IDS60801.95679.axf

JavaScript Object Notation format (JSON) in row-major order
http://www.bom.gov.au/fwo/IDS60801/IDS60801.95679.json